Anchorage/Elmendorf AFB, Alaska
Current Conditions -  °F | °C
As of 8:58 AM on Saturday 20 Dec 2014 (Local Time) from PAED Reporting Station
Clear Clear  
Wind Chill: -13°   Ceiling: Unl
Heat Index: -6°   Visibility: 10mi
Dew Point: -10°   Wind: 10mph
Humidity: 77%   Direction: 60°ENE
Pressure: 28.94"   Gusts: NA
Location:  61.25°N, 149.79°W
Report Text: PAED 201758Z AUTO 06009KT 030V090 10SM CLR M06/M10 A2894 RMK AO2 SLP798 T10641098 11054 21067 57017
Loading
Personal Weather Stations






























Interactive Weather Map New forecast layout! Learn more

10-Day Weather Forecast

Advertisements
Track Severe Weather on mobile